Station Historical Data
 
Daily Summary for October 22, 2017 Units:  English    Metric   Both
« Previous Day
Next Day »
Daily Weekly Monthly Yearly Custom
  Current: High: Low: Average:
Temperature: 72.7 °F 72.7 °F 43.4 °F 51.5 °F
Dew Point: 60.5 °F 60.8 °F 42.3 °F 48.6 °F
Humidity: 65 % 99 % 62 % 91 %
Wind Speed: 0.0 mph 3.0 mph 0.0 mph 0.1 mph
Wind Gust: 7.0 mph 7.0 mph - -
Wind:Calm - - ESE
Pressure: 30.38 in 30.43 in 30.37 in -
Precipitation: 0.00 in      
Historical Graphs
 
 
Tabular Data for October 22, 2017
Time Temperature Dew Point Pressure Wind Wind Speed Wind Gust Humidity Rainfall Rate (Hourly)
00:01 50.0 °F 47.7 °F 30.39 in Calm     92 % 0.00 in
00:06 49.8 °F 47.5 °F 30.38 in Calm     92 % 0.00 in
00:11 49.6 °F 47.3 °F 30.38 in Calm     92 % 0.00 in
00:16 49.5 °F 47.2 °F 30.38 in Calm     92 % 0.00 in
00:21 49.3 °F 47.0 °F 30.38 in Calm     92 % 0.00 in
00:26 49.2 °F 46.9 °F 30.38 in Calm     92 % 0.00 in
00:31 49.0 °F 46.7 °F 30.38 in Calm     92 % 0.00 in
00:36 48.9 °F 46.6 °F 30.38 in Calm     92 % 0.00 in
00:41 48.7 °F 46.7 °F 30.37 in Calm     93 % 0.00 in
00:46 48.6 °F 46.6 °F 30.38 in Calm     93 % 0.00 in
00:51 48.5 °F 46.5 °F 30.38 in Calm     93 % 0.00 in
00:56 48.4 °F 46.4 °F 30.38 in Calm     93 % 0.00 in
01:01 48.3 °F 46.3 °F 30.38 in Calm     93 % 0.00 in
01:06 48.3 °F 46.3 °F 30.38 in Calm     93 % 0.00 in
01:11 48.2 °F 46.2 °F 30.38 in Calm     93 % 0.00 in
01:16 48.1 °F 46.1 °F 30.38 in Calm     93 % 0.00 in
01:21 48.0 °F 46.0 °F 30.38 in Calm     93 % 0.00 in
01:26 47.8 °F 45.8 °F 30.38 in Calm     93 % 0.00 in
01:31 47.7 °F 45.7 °F 30.38 in Calm     93 % 0.00 in
01:36 47.6 °F 45.6 °F 30.38 in Calm     93 % 0.00 in
01:41 47.6 °F 45.9 °F 30.38 in Calm     94 % 0.00 in
01:46 47.6 °F 45.9 °F 30.38 in Calm     94 % 0.00 in
01:51 47.8 °F 46.1 °F 30.37 in Calm     94 % 0.00 in
01:56 47.7 °F 46.0 °F 30.38 in Calm     94 % 0.00 in
02:01 47.7 °F 46.0 °F 30.37 in Calm     94 % 0.00 in
02:06 47.5 °F 45.8 °F 30.37 in Calm     94 % 0.00 in
02:11 47.4 °F 45.7 °F 30.38 in Calm     94 % 0.00 in
02:16 47.2 °F 45.5 °F 30.37 in Calm     94 % 0.00 in
02:21 47.1 °F 45.4 °F 30.37 in Calm     94 % 0.00 in
02:26 47.0 °F 45.3 °F 30.37 in Calm     94 % 0.00 in
02:31 46.9 °F 45.2 °F 30.37 in Calm     94 % 0.00 in
02:36 46.8 °F 45.1 °F 30.37 in Calm     94 % 0.00 in
02:41 46.7 °F 45.0 °F 30.37 in Calm     94 % 0.00 in
02:46 46.7 °F 45.0 °F 30.37 in Calm     94 % 0.00 in
02:48 46.7 °F 45.0 °F 30.37 in Calm     94 % 0.00 in
02:53 46.6 °F 44.9 °F 30.37 in Calm     94 % 0.00 in
02:58 46.5 °F 44.8 °F 30.37 in Calm     94 % 0.00 in
03:03 46.4 °F 44.7 °F 30.37 in Calm     94 % 0.00 in
03:08 46.3 °F 44.6 °F 30.37 in Calm     94 % 0.00 in
03:13 46.3 °F 44.9 °F 30.37 in Calm     95 % 0.00 in
03:18 46.3 °F 44.9 °F 30.37 in Calm     95 % 0.00 in
03:23 46.2 °F 44.8 °F 30.37 in Calm     95 % 0.00 in
03:28 46.1 °F 44.4 °F 30.37 in Calm     94 % 0.00 in
03:33 46.0 °F 44.6 °F 30.37 in Calm     95 % 0.00 in
03:38 46.0 °F 44.6 °F 30.37 in Calm     95 % 0.00 in
03:43 46.0 °F 44.6 °F 30.37 in Calm     95 % 0.00 in
03:48 45.9 °F 44.5 °F 30.37 in Calm     95 % 0.00 in
03:53 46.0 °F 44.6 °F 30.37 in Calm     95 % 0.00 in
03:58 45.9 °F 44.5 °F 30.37 in Calm     95 % 0.00 in
04:03 45.9 °F 44.5 °F 30.37 in Calm     95 % 0.00 in
04:08 45.9 °F 44.5 °F 30.37 in Calm     95 % 0.00 in
04:13 45.9 °F 44.5 °F 30.37 in Calm     95 % 0.00 in
04:18 46.0 °F 44.6 °F 30.37 in Calm     95 % 0.00 in
04:23 46.0 °F 44.6 °F 30.38 in Calm     95 % 0.00 in
04:28 46.0 °F 44.6 °F 30.38 in Calm     95 % 0.00 in
04:33 45.9 °F 44.5 °F 30.38 in Calm     95 % 0.00 in
04:38 45.9 °F 44.5 °F 30.38 in Calm     95 % 0.00 in
04:43 45.8 °F 44.4 °F 30.38 in Calm     95 % 0.00 in
04:48 45.7 °F 44.3 °F 30.38 in Calm     95 % 0.00 in
04:53 45.6 °F 44.2 °F 30.39 in Calm     95 % 0.00 in
04:58 45.6 °F 44.2 °F 30.39 in Calm     95 % 0.00 in
05:03 45.5 °F 44.2 °F 30.39 in Calm     95 % 0.00 in
05:08 45.4 °F 44.1 °F 30.39 in Calm     95 % 0.00 in
05:13 45.2 °F 43.9 °F 30.39 in Calm     95 % 0.00 in
05:18 45.1 °F 43.8 °F 30.39 in Calm     95 % 0.00 in
05:23 45.0 °F 43.7 °F 30.39 in Calm     95 % 0.00 in
05:28 44.9 °F 43.6 °F 30.39 in Calm     95 % 0.00 in
05:33 44.8 °F 43.5 °F 30.40 in Calm     95 % 0.00 in
05:38 44.8 °F 43.5 °F 30.40 in Calm     95 % 0.00 in
05:43 44.7 °F 43.4 °F 30.40 in Calm     95 % 0.00 in
05:48 44.6 °F 43.3 °F 30.40 in Calm     95 % 0.00 in
05:53 44.4 °F 43.1 °F 30.40 in Calm     95 % 0.00 in
05:58 44.4 °F 43.1 °F 30.40 in Calm     95 % 0.00 in
06:03 44.4 °F 43.1 °F 30.40 in Calm     95 % 0.00 in
06:08 44.3 °F 43.0 °F 30.40 in Calm     95 % 0.00 in
06:13 44.2 °F 42.9 °F 30.40 in Calm     95 % 0.00 in
06:18 44.1 °F 42.8 °F 30.40 in Calm     95 % 0.00 in
06:23 44.0 °F 42.7 °F 30.40 in Calm     95 % 0.00 in
06:28 44.0 °F 42.7 °F 30.41 in Calm     95 % 0.00 in
06:33 44.0 °F 42.6 °F 30.40 in Calm     95 % 0.00 in
06:38 43.9 °F 42.5 °F 30.41 in Calm     95 % 0.00 in
06:43 43.9 °F 42.5 °F 30.41 in Calm     95 % 0.00 in
06:45 43.9 °F 42.5 °F 30.41 in Calm     95 % 0.00 in
06:50 43.8 °F 42.4 °F 30.41 in Calm     95 % 0.00 in
06:55 43.8 °F 42.7 °F 30.41 in Calm     96 % 0.00 in
07:00 43.7 °F 42.6 °F 30.41 in Calm     96 % 0.00 in
07:05 43.7 °F 42.6 °F 30.41 in Calm     96 % 0.00 in
07:10 43.7 °F 42.6 °F 30.41 in Calm     96 % 0.00 in
07:15 43.6 °F 42.5 °F 30.41 in Calm     96 % 0.00 in
07:20 43.6 °F 42.5 °F 30.41 in Calm     96 % 0.00 in
07:25 43.6 °F 42.5 °F 30.41 in Calm     96 % 0.00 in
07:30 43.6 °F 42.5 °F 30.41 in Calm     96 % 0.00 in
07:35 43.5 °F 42.4 °F 30.42 in Calm     96 % 0.00 in
07:40 43.5 °F 42.4 °F 30.42 in Calm     96 % 0.00 in
07:45 43.4 °F 42.3 °F 30.42 in Calm     96 % 0.00 in
07:50 43.4 °F 42.3 °F 30.42 in Calm     96 % 0.00 in
07:55 43.5 °F 42.4 °F 30.42 in Calm     96 % 0.00 in
08:00 43.5 °F 42.4 °F 30.42 in Calm     96 % 0.00 in
08:05 43.6 °F 42.5 °F 30.42 in Calm     96 % 0.00 in
08:10 43.9 °F 42.8 °F 30.42 in Calm     96 % 0.00 in
08:15 44.1 °F 43.3 °F 30.43 in Calm     97 % 0.00 in
08:20 44.4 °F 43.6 °F 30.42 in Calm     97 % 0.00 in
08:25 44.5 °F 43.7 °F 30.42 in Calm     97 % 0.00 in
08:30 44.8 °F 44.0 °F 30.42 in Calm     97 % 0.00 in
08:35 45.0 °F 44.2 °F 30.43 in Calm     97 % 0.00 in
08:40 45.3 °F 44.5 °F 30.43 in Calm     97 % 0.00 in
08:45 45.5 °F 44.7 °F 30.43 in Calm     97 % 0.00 in
08:50 45.8 °F 45.0 °F 30.43 in Calm     97 % 0.00 in
08:55 46.4 °F 45.6 °F 30.43 in Calm     97 % 0.00 in
09:00 47.3 °F 46.7 °F 30.43 in Calm     98 % 0.00 in
09:05 47.9 °F 47.3 °F 30.43 in Calm     98 % 0.00 in
09:10 48.6 °F 48.0 °F 30.43 in Calm     98 % 0.00 in
09:15 49.3 °F 48.7 °F 30.43 in Calm   1.0 mph 98 % 0.00 in
09:20 50.3 °F 49.7 °F 30.43 in Calm   1.0 mph 98 % 0.00 in
09:25 51.2 °F 50.9 °F 30.43 in Calm   1.0 mph 99 % 0.00 in
09:30 52.2 °F 51.9 °F 30.43 in Calm   1.0 mph 99 % 0.00 in
09:35 52.8 °F 52.5 °F 30.43 in Calm   1.0 mph 99 % 0.00 in
09:40 53.6 °F 53.3 °F 30.43 in Calm   1.0 mph 99 % 0.00 in
09:45 54.5 °F 54.2 °F 30.43 in Calm   2.0 mph 99 % 0.00 in
09:50 55.6 °F 55.3 °F 30.43 in Calm   2.0 mph 99 % 0.00 in
09:55 56.7 °F 56.4 °F 30.43 in Calm   2.0 mph 99 % 0.00 in
10:01 58.1 °F 57.8 °F 30.43 in Calm   2.0 mph 99 % 0.00 in
10:06 59.1 °F 58.8 °F 30.43 in Calm   2.0 mph 99 % 0.00 in
10:11 60.1 °F 59.8 °F 30.43 in Calm   2.0 mph 99 % 0.00 in
10:16 61.0 °F 60.4 °F 30.43 in Calm   2.0 mph 98 % 0.00 in
10:21 61.7 °F 60.5 °F 30.43 in Calm   2.0 mph 96 % 0.00 in
10:26 62.2 °F 60.4 °F 30.43 in Calm   2.0 mph 94 % 0.00 in
10:31 62.7 °F 60.0 °F 30.42 in Calm   2.0 mph 91 % 0.00 in
10:36 63.3 °F 60.0 °F 30.42 in Calm   2.0 mph 89 % 0.00 in
10:41 63.8 °F 59.9 °F 30.42 in Calm   2.0 mph 87 % 0.00 in
10:46 64.3 °F 59.4 °F 30.42 in Calm   2.0 mph 84 % 0.00 in
10:51 64.8 °F 59.2 °F 30.42 in Calm   2.0 mph 82 % 0.00 in
10:56 65.3 °F 59.4 °F 30.42 in Calm   3.0 mph 81 % 0.00 in
11:01 65.7 °F 58.7 °F 30.42 in Calm   3.0 mph 78 % 0.00 in
11:06 66.2 °F 58.5 °F 30.42 in Calm   3.0 mph 76 % 0.00 in
11:11 66.7 °F 57.5 °F 30.42 in SSE 1.0 mph 2.0 mph 72 % 0.00 in
11:16 67.3 °F 58.1 °F 30.42 in Calm   2.0 mph 72 % 0.00 in
11:21 67.8 °F 57.8 °F 30.42 in Calm   3.0 mph 70 % 0.00 in
11:26 68.3 °F 58.7 °F 30.41 in Calm   3.0 mph 71 % 0.00 in
11:31 68.6 °F 59.0 °F 30.41 in Calm   5.0 mph 71 % 0.00 in
11:36 68.8 °F 58.8 °F 30.41 in Calm   5.0 mph 70 % 0.00 in
11:41 69.0 °F 59.0 °F 30.41 in Calm   5.0 mph 70 % 0.00 in
11:46 69.4 °F 59.4 °F 30.41 in Calm   5.0 mph 70 % 0.00 in
11:51 69.8 °F 59.4 °F 30.41 in SSW 1.0 mph 5.0 mph 69 % 0.00 in
11:56 70.0 °F 59.9 °F 30.41 in East 3.0 mph 5.0 mph 70 % 0.00 in
12:01 70.1 °F 59.6 °F 30.41 in Calm   5.0 mph 69 % 0.00 in
12:06 70.2 °F 59.7 °F 30.40 in Calm   5.0 mph 69 % 0.00 in
12:26 70.9 °F 60.0 °F 30.40 in Calm   6.0 mph 68 % 0.00 in
12:31 71.2 °F 60.7 °F 30.39 in Calm   6.0 mph 69 % 0.00 in
12:35 71.2 °F 60.7 °F 30.39 in Calm   6.0 mph 69 % 0.00 in
12:40 71.3 °F 60.4 °F 30.39 in East 1.0 mph 6.0 mph 68 % 0.00 in
12:45 71.4 °F 60.5 °F 30.39 in ENE 1.0 mph 6.0 mph 68 % 0.00 in
12:50 71.7 °F 60.8 °F 30.39 in Calm   5.0 mph 68 % 0.00 in
12:55 72.1 °F 59.5 °F 30.39 in ESE 1.0 mph 4.0 mph 64 % 0.00 in
13:00 72.3 °F 58.7 °F 30.39 in East 2.0 mph 6.0 mph 62 % 0.00 in
13:05 72.1 °F 59.9 °F 30.39 in Calm   7.0 mph 65 % 0.00 in
13:10 72.4 °F 60.2 °F 30.39 in Calm   7.0 mph 65 % 0.00 in
13:15 72.6 °F 60.8 °F 30.38 in Calm   7.0 mph 66 % 0.00 in
13:20 72.7 °F 60.5 °F 30.38 in Calm   7.0 mph 65 % 0.00 in
MarylandWx.com
Compliments of Weather Underground - 6 mb